Kristin D — C6XA6 — position and weather

sailwx.info

Track history (hours):
 
Tides and Currents Weather Stations Pressure Air Temp Water Temp Dewpoint Dewpoint Depression Visibility Wind Speed Wind Dir Waves Ship Positions

Kristin D

Last reported at 2016-May-04 20:14 UTC. Time now 2016-May-05 16:14 UTC.
Position N 57°20' E 007°25'.

Length 90 m; draft 3.9 m.

Type: Cargo ship. MMSI: 311003700.

Date/timePositionNaut miles runAvg speedWind from/ knotsBaromVisibWave heightAir tempDewpointWater temp
2016-May-04 20:14N 57°20' E 007°25'810.8
2016-May-04 19:33N 57°26' E 007°16'1010.3
2016-May-04 18:32N 57°34' E 007°06'1010.1
2016-May-04 17:34N 57°42' E 006°55'1010.0
2016-May-04 16:33N 57°51' E 006°45'1110.5
2016-May-04 15:33N 57°59' E 006°34'1110.4
2016-May-04 14:33N 58°08' E 006°22'10 9.8
2016-May-04 13:33N 58°16' E 006°13'4 0.5
2016-May-04 06:24N 58°20' E 006°16'0 0.0
2016-May-04 05:27N 58°20' E 006°16'0 0.0
2016-May-04 03:21N 58°20' E 006°16'0 0.0
2016-May-04 02:08N 58°20' E 006°16'0 0.0
2016-May-03 23:32N 58°20' E 006°16'7 7.3
2016-May-03 22:33N 58°21' E 006°02'10 9.8
2016-May-03 21:33N 58°26' E 005°47'9 8.8
2016-May-03 20:33N 58°33' E 005°37'9 8.6
2016-May-03 19:33N 58°41' E 005°29'8 8.0
2016-May-03 18:33N 58°48' E 005°24'10 9.6
2016-May-03 17:33N 58°57' E 005°33'8 7.6
2016-May-03 16:33N 59°01' E 005°46'4 3.8
2016-May-03 15:33N 58°57' E 005°45'0 0.0
2016-May-03 14:33N 58°57' E 005°45'0 0.0
2016-May-03 13:33N 58°57' E 005°45'0 0.0
2016-May-03 12:33N 58°57' E 005°45'0 0.0
2016-May-03 11:32N 58°57' E 005°45'0 0.0
2016-May-03 10:32N 58°57' E 005°45'0 0.0
2016-May-03 09:32N 58°57' E 005°45'0 0.0
2016-May-03 08:32N 58°57' E 005°45'0 0.0
2016-May-03 07:32N 58°57' E 005°45'0 0.0
2016-May-03 04:32N 58°57' E 005°45'0 0.0
2016-May-03 03:32N 58°57' E 005°45'0 0.0
2016-May-03 02:32N 58°57' E 005°45'0 0.0
2016-May-03 01:32N 58°57' E 005°45'0 0.0
2016-May-03 00:32N 58°57' E 005°45'0 0.0
2016-May-02 23:32N 58°57' E 005°45'0 0.0
2016-May-02 22:32N 58°57' E 005°45'0 0.0
2016-May-02 21:32N 58°57' E 005°45'0 0.0
2016-May-02 20:32N 58°57' E 005°45'0 0.0
2016-May-02 19:32N 58°57' E 005°45'0 0.0
2016-May-02 18:31N 58°57' E 005°45'0 0.0
2016-May-02 17:31N 58°57' E 005°45'1 1.1
2016-May-02 16:33N 58°58' E 005°46'1 0.8
2016-May-02 15:27N 58°58' E 005°45'0 0.0
2016-May-02 14:33N 58°58' E 005°45'0 0.0
2016-May-02 13:27N 58°58' E 005°45'0 0.0
2016-May-02 12:33N 58°58' E 005°45'0 0.0
2016-May-02 11:33N 58°58' E 005°45'0 0.0
2016-May-02 10:33N 58°58' E 005°45'0 0.0
2016-May-02 09:33N 58°58' E 005°45'0 0.0
2016-May-02 08:33N 58°58' E 005°45'0 0.0
2016-May-02 07:33N 58°58' E 005°45'0 0.0
2016-May-02 06:09N 58°58' E 005°45'0 0.0
2016-May-02 05:33N 58°58' E 005°45'0 0.0
2016-May-02 04:33N 58°58' E 005°45'0 0.0
2016-May-02 03:27N 58°58' E 005°45'0 0.0
2016-May-02 02:33N 58°58' E 005°45'0 0.0
2016-May-02 01:33N 58°58' E 005°45'0 0.0
2016-May-02 00:33N 58°58' E 005°45'0 0.0
2016-May-01 23:33N 58°58' E 005°45'0 0.0
2016-May-01 22:33N 58°58' E 005°45'0 0.0
2016-May-01 21:33N 58°58' E 005°45'0 0.0
2016-May-01 20:33N 58°58' E 005°45'0 0.0
2016-May-01 19:33N 58°58' E 005°45'0 0.0
2016-May-01 18:33N 58°58' E 005°45'0 0.0
2016-May-01 17:33N 58°58' E 005°45'0 0.0
2016-May-01 16:33N 58°58' E 005°45'0 0.0
2016-May-01 15:33N 58°58' E 005°45'0 0.0
2016-May-01 14:33N 58°58' E 005°45'0 0.0
2016-May-01 13:33N 58°58' E 005°45'0 0.0
2016-May-01 12:33N 58°58' E 005°45'0 0.0
2016-May-01 11:33N 58°58' E 005°45'0 0.0
2016-May-01 10:33N 58°58' E 005°45'0 0.0
2016-May-01 09:33N 58°58' E 005°45'0 0.0
2016-May-01 08:32N 58°58' E 005°45'0 0.0
2016-May-01 07:32N 58°58' E 005°45'0 0.0
2016-May-01 06:29N 58°58' E 005°45'0 0.0
2016-May-01 05:32N 58°58' E 005°45'0 0.0
2016-May-01 04:32N 58°58' E 005°45'0 0.0
2016-May-01 03:29N 58°58' E 005°45'0 0.0
2016-May-01 02:32N 58°58' E 005°45'0 0.1
2016-May-01 01:33N 58°58' E 005°46'7 6.8
2016-May-01 00:33N 59°03' E 005°35'1010.1
2016-Apr-30 23:33N 59°07' E 005°17'11 0.2
2016-Apr-28 21:32N 59°01' E 004°59'1212.7
2016-Apr-28 20:33N 58°51' E 005°13'1514.5
2016-Apr-28 19:33N 58°38' E 005°27'1414.1
2016-Apr-28 18:32N 58°27' E 005°44'1313.7
2016-Apr-28 17:34N 58°17' E 006°02'1413.9
2016-Apr-28 16:33N 58°08' E 006°22'1313.2
2016-Apr-28 15:33N 58°00' E 006°42'1312.9
2016-Apr-28 14:33N 57°56' E 007°05'38 1.7
2016-Apr-27 16:19N 58°05' E 008°15'1013.7
2016-Apr-27 15:34N 58°12' E 008°29'1313.1
2016-Apr-27 14:33N 58°23' E 008°44'3 0.3
2016-Apr-27 04:33N 58°23' E 008°50'5910.7
2016-Apr-26 23:05N 57°54' E 010°27'610.7
2016-Apr-26 22:33N 57°51' E 010°36'1111.1
2016-Apr-26 21:33N 57°45' E 010°53'1110.8
2016-Apr-26 20:33N 57°38' E 011°08'1110.8
2016-Apr-26 19:33N 57°30' E 011°22'1110.9
2016-Apr-26 18:33N 57°20' E 011°31'1110.8
2016-Apr-26 17:33N 57°10' E 011°38'1211.1
2016-Apr-26 16:30N 56°59' E 011°45'1111.1
2016-Apr-26 15:33N 56°50' E 011°54'1110.9
2016-Apr-26 14:33N 56°39' E 011°58'1110.6
2016-Apr-26 13:33N 56°29' E 012°05'1411.4
2016-Apr-26 12:17N 56°17' E 012°19'912.6
2016-Apr-26 11:33N 56°10' E 012°29'1212.3
2016-Apr-26 10:33N 55°59' E 012°42'1111.1
2016-Apr-26 09:34N 55°48' E 012°43'1212.0
2016-Apr-26 08:33N 55°36' E 012°42'1212.3
2016-Apr-26 07:33N 55°24' E 012°41'1010.5
2016-Apr-26 06:33N 55°16' E 012°53'1312.7
2016-Apr-26 05:33N 55°16' E 013°15'1313.0
2016-Apr-26 04:33N 55°15' E 013°38'1312.8
2016-Apr-26 03:33N 55°14' E 014°01'1111.0
2016-Apr-26 02:33N 55°16' E 014°19'1211.7
2016-Apr-26 01:33N 55°25' E 014°33'1211.9
2016-Apr-26 00:33N 55°31' E 014°51'1211.8
2016-Apr-25 23:33N 55°37' E 015°09'1312.1
2016-Apr-25 22:30N 55°44' E 015°29'  
Track history (hours):
 
Tides and Currents Weather Stations Pressure Air Temp Water Temp Dewpoint Dewpoint Depression Visibility Wind Speed Wind Dir Waves Ship Positions

Kristin D

Last reported at 2016-May-04 20:14 UTC. Time now 2016-May-05 16:14 UTC.
Position N 57°20' E 007°25'.

Length 90 m; draft 3.9 m.

Type: Cargo ship. MMSI: 311003700.

Date/timePositionNaut miles runAvg speedWind from/ knotsBaromVisibWave heightAir tempDewpointWater temp
2016-May-04 20:14N 57°20' E 007°25'810.8
2016-May-04 19:33N 57°26' E 007°16'1010.3
2016-May-04 18:32N 57°34' E 007°06'1010.1
2016-May-04 17:34N 57°42' E 006°55'1010.0
2016-May-04 16:33N 57°51' E 006°45'1110.5
2016-May-04 15:33N 57°59' E 006°34'1110.4
2016-May-04 14:33N 58°08' E 006°22'10 9.8
2016-May-04 13:33N 58°16' E 006°13'4 0.5
2016-May-04 06:24N 58°20' E 006°16'0 0.0
2016-May-04 05:27N 58°20' E 006°16'0 0.0
2016-May-04 03:21N 58°20' E 006°16'0 0.0
2016-May-04 02:08N 58°20' E 006°16'0 0.0
2016-May-03 23:32N 58°20' E 006°16'7 7.3
2016-May-03 22:33N 58°21' E 006°02'10 9.8
2016-May-03 21:33N 58°26' E 005°47'9 8.8
2016-May-03 20:33N 58°33' E 005°37'9 8.6
2016-May-03 19:33N 58°41' E 005°29'8 8.0
2016-May-03 18:33N 58°48' E 005°24'10 9.6
2016-May-03 17:33N 58°57' E 005°33'8 7.6
2016-May-03 16:33N 59°01' E 005°46'4 3.8
2016-May-03 15:33N 58°57' E 005°45'0 0.0
2016-May-03 14:33N 58°57' E 005°45'0 0.0
2016-May-03 13:33N 58°57' E 005°45'0 0.0
2016-May-03 12:33N 58°57' E 005°45'0 0.0
2016-May-03 11:32N 58°57' E 005°45'0 0.0
2016-May-03 10:32N 58°57' E 005°45'0 0.0
2016-May-03 09:32N 58°57' E 005°45'0 0.0
2016-May-03 08:32N 58°57' E 005°45'0 0.0
2016-May-03 07:32N 58°57' E 005°45'0 0.0
2016-May-03 04:32N 58°57' E 005°45'0 0.0
2016-May-03 03:32N 58°57' E 005°45'0 0.0
2016-May-03 02:32N 58°57' E 005°45'0 0.0
2016-May-03 01:32N 58°57' E 005°45'0 0.0
2016-May-03 00:32N 58°57' E 005°45'0 0.0
2016-May-02 23:32N 58°57' E 005°45'0 0.0
2016-May-02 22:32N 58°57' E 005°45'0 0.0
2016-May-02 21:32N 58°57' E 005°45'0 0.0
2016-May-02 20:32N 58°57' E 005°45'0 0.0
2016-May-02 19:32N 58°57' E 005°45'0 0.0
2016-May-02 18:31N 58°57' E 005°45'0 0.0
2016-May-02 17:31N 58°57' E 005°45'1 1.1
2016-May-02 16:33N 58°58' E 005°46'1 0.8
2016-May-02 15:27N 58°58' E 005°45'0 0.0
2016-May-02 14:33N 58°58' E 005°45'0 0.0
2016-May-02 13:27N 58°58' E 005°45'0 0.0
2016-May-02 12:33N 58°58' E 005°45'0 0.0
2016-May-02 11:33N 58°58' E 005°45'0 0.0
2016-May-02 10:33N 58°58' E 005°45'0 0.0
2016-May-02 09:33N 58°58' E 005°45'0 0.0
2016-May-02 08:33N 58°58' E 005°45'0 0.0
2016-May-02 07:33N 58°58' E 005°45'0 0.0
2016-May-02 06:09N 58°58' E 005°45'0 0.0
2016-May-02 05:33N 58°58' E 005°45'0 0.0
2016-May-02 04:33N 58°58' E 005°45'0 0.0
2016-May-02 03:27N 58°58' E 005°45'0 0.0
2016-May-02 02:33N 58°58' E 005°45'0 0.0
2016-May-02 01:33N 58°58' E 005°45'0 0.0
2016-May-02 00:33N 58°58' E 005°45'0 0.0
2016-May-01 23:33N 58°58' E 005°45'0 0.0
2016-May-01 22:33N 58°58' E 005°45'0 0.0
2016-May-01 21:33N 58°58' E 005°45'0 0.0
2016-May-01 20:33N 58°58' E 005°45'0 0.0
2016-May-01 19:33N 58°58' E 005°45'0 0.0
2016-May-01 18:33N 58°58' E 005°45'0 0.0
2016-May-01 17:33N 58°58' E 005°45'0 0.0
2016-May-01 16:33N 58°58' E 005°45'0 0.0
2016-May-01 15:33N 58°58' E 005°45'0 0.0
2016-May-01 14:33N 58°58' E 005°45'0 0.0
2016-May-01 13:33N 58°58' E 005°45'0 0.0
2016-May-01 12:33N 58°58' E 005°45'0 0.0
2016-May-01 11:33N 58°58' E 005°45'0 0.0
2016-May-01 10:33N 58°58' E 005°45'0 0.0
2016-May-01 09:33N 58°58' E 005°45'0 0.0
2016-May-01 08:32N 58°58' E 005°45'0 0.0
2016-May-01 07:32N 58°58' E 005°45'0 0.0
2016-May-01 06:29N 58°58' E 005°45'0 0.0
2016-May-01 05:32N 58°58' E 005°45'0 0.0
2016-May-01 04:32N 58°58' E 005°45'0 0.0
2016-May-01 03:29N 58°58' E 005°45'0 0.0
2016-May-01 02:32N 58°58' E 005°45'0 0.1
2016-May-01 01:33N 58°58' E 005°46'7 6.8
2016-May-01 00:33N 59°03' E 005°35'1010.1
2016-Apr-30 23:33N 59°07' E 005°17'11 0.2
2016-Apr-28 21:32N 59°01' E 004°59'1212.7
2016-Apr-28 20:33N 58°51' E 005°13'1514.5
2016-Apr-28 19:33N 58°38' E 005°27'1414.1
2016-Apr-28 18:32N 58°27' E 005°44'1313.7
2016-Apr-28 17:34N 58°17' E 006°02'1413.9
2016-Apr-28 16:33N 58°08' E 006°22'1313.2
2016-Apr-28 15:33N 58°00' E 006°42'1312.9
2016-Apr-28 14:33N 57°56' E 007°05'38 1.7
2016-Apr-27 16:19N 58°05' E 008°15'1013.7
2016-Apr-27 15:34N 58°12' E 008°29'1313.1
2016-Apr-27 14:33N 58°23' E 008°44'3 0.3
2016-Apr-27 04:33N 58°23' E 008°50'5910.7
2016-Apr-26 23:05N 57°54' E 010°27'610.7
2016-Apr-26 22:33N 57°51' E 010°36'1111.1
2016-Apr-26 21:33N 57°45' E 010°53'1110.8
2016-Apr-26 20:33N 57°38' E 011°08'1110.8
2016-Apr-26 19:33N 57°30' E 011°22'1110.9
2016-Apr-26 18:33N 57°20' E 011°31'1110.8
2016-Apr-26 17:33N 57°10' E 011°38'1211.1
2016-Apr-26 16:30N 56°59' E 011°45'1111.1
2016-Apr-26 15:33N 56°50' E 011°54'1110.9
2016-Apr-26 14:33N 56°39' E 011°58'1110.6
2016-Apr-26 13:33N 56°29' E 012°05'1411.4
2016-Apr-26 12:17N 56°17' E 012°19'912.6
2016-Apr-26 11:33N 56°10' E 012°29'1212.3
2016-Apr-26 10:33N 55°59' E 012°42'1111.1
2016-Apr-26 09:34N 55°48' E 012°43'1212.0
2016-Apr-26 08:33N 55°36' E 012°42'1212.3
2016-Apr-26 07:33N 55°24' E 012°41'1010.5
2016-Apr-26 06:33N 55°16' E 012°53'1312.7
2016-Apr-26 05:33N 55°16' E 013°15'1313.0
2016-Apr-26 04:33N 55°15' E 013°38'1312.8
2016-Apr-26 03:33N 55°14' E 014°01'1111.0
2016-Apr-26 02:33N 55°16' E 014°19'1211.7
2016-Apr-26 01:33N 55°25' E 014°33'1211.9
2016-Apr-26 00:33N 55°31' E 014°51'1211.8
2016-Apr-25 23:33N 55°37' E 015°09'1312.1
2016-Apr-25 22:30N 55°44' E 015°29'  

Dump ship's entire track history